createdAt,value
2023-02-11T00:01:10.251Z,77.33
2023-02-11T00:03:32.021Z,77.28
2023-02-11T00:06:03.438Z,77.27
2023-02-11T00:08:25.781Z,77.68
2023-02-11T00:10:53.068Z,77.30
2023-02-11T00:13:14.709Z,77.12
2023-02-11T00:15:37.265Z,77.39
2023-02-11T00:17:58.886Z,77.12
2023-02-11T00:20:21.035Z,77.43
2023-02-11T00:22:42.812Z,77.49
2023-02-11T00:25:05.612Z,76.88
2023-02-11T00:27:27.263Z,77.02
2023-02-11T00:29:49.587Z,76.69
2023-02-11T00:32:11.267Z,77.07
2023-02-11T00:34:33.366Z,76.99
2023-02-11T00:36:57.242Z,77.17
2023-02-11T00:39:18.823Z,76.62
2023-02-11T00:41:40.621Z,77.11
2023-02-11T00:44:03.002Z,76.84
2023-02-11T00:46:25.024Z,77.30
2023-02-11T00:48:46.785Z,77.18
2023-02-11T00:51:08.998Z,76.94
2023-02-11T00:53:31.751Z,76.91
2023-02-11T00:55:53.472Z,76.67
2023-02-11T00:58:15.168Z,76.47
2023-02-11T01:00:37.258Z,76.51
2023-02-11T01:02:59.014Z,76.48
2023-02-11T01:05:21.324Z,76.74
2023-02-11T01:07:43.368Z,76.47
2023-02-11T01:10:05.538Z,76.58
2023-02-11T01:12:27.183Z,75.97
2023-02-11T01:14:48.886Z,76.16
2023-02-11T01:17:12.864Z,76.20
2023-02-11T01:19:34.470Z,76.07
2023-02-11T01:21:56.070Z,76.38
2023-02-11T01:24:17.705Z,76.34
2023-02-11T01:26:39.312Z,76.57
2023-02-11T01:29:01.194Z,76.59
2023-02-11T01:31:22.912Z,76.12
2023-02-11T01:33:44.599Z,76.11
2023-02-11T01:36:07.865Z,76.07
2023-02-11T01:38:30.058Z,75.98
2023-02-11T01:41:00.894Z,76.42
2023-02-11T01:43:28.167Z,75.85
2023-02-11T01:46:34.369Z,76.33
2023-02-11T01:49:04.418Z,76.47
2023-02-11T01:51:36.505Z,76.09
2023-02-11T01:54:18.352Z,76.58
2023-02-11T01:57:07.786Z,76.78
2023-02-11T01:59:47.951Z,76.62
2023-02-11T02:02:17.395Z,76.60
2023-02-11T02:04:55.254Z,76.49
2023-02-11T02:07:32.652Z,76.40
2023-02-11T02:10:08.152Z,76.86
2023-02-11T02:12:31.102Z,76.71
2023-02-11T02:15:09.178Z,76.77
2023-02-11T02:17:46.158Z,76.65
2023-02-11T02:20:32.506Z,76.04
2023-02-11T02:23:16.122Z,76.36
2023-02-11T02:26:27.177Z,76.40
2023-02-11T02:29:25.390Z,76.52
2023-02-11T02:32:26.763Z,77.07
2023-02-11T02:35:19.857Z,77.09
2023-02-11T02:37:59.911Z,77.11
2023-02-11T02:40:32.351Z,77.63
2023-02-11T02:42:57.650Z,76.90
2023-02-11T02:45:19.970Z,77.29
2023-02-11T02:47:41.600Z,76.99
2023-02-11T02:50:07.735Z,77.30
2023-02-11T02:52:47.343Z,77.50
2023-02-11T02:55:33.833Z,76.86
2023-02-11T02:58:35.636Z,77.35
2023-02-11T03:01:23.010Z,77.53
2023-02-11T03:04:38.580Z,77.28
2023-02-11T03:07:22.377Z,77.35
2023-02-11T03:09:55.122Z,77.36
2023-02-11T03:12:17.935Z,77.41
2023-02-11T03:14:41.790Z,77.66
2023-02-11T03:17:07.838Z,77.71
2023-02-11T03:19:37.587Z,78.05
2023-02-11T03:22:00.740Z,77.61
2023-02-11T03:24:38.304Z,78.06
2023-02-11T03:27:15.157Z,77.45
2023-02-11T03:30:14.800Z,77.97
2023-02-11T03:32:49.271Z,77.85
2023-02-11T03:35:21.520Z,78.14
2023-02-11T03:37:54.293Z,77.52
2023-02-11T03:40:24.925Z,78.53
2023-02-11T03:42:58.943Z,77.87
2023-02-11T03:45:24.759Z,78.05
2023-02-11T03:47:57.660Z,78.17
2023-02-11T03:50:22.111Z,78.17
2023-02-11T03:52:45.152Z,78.45
2023-02-11T03:55:17.353Z,78.39
2023-02-11T03:57:39.297Z,78.65
2023-02-11T04:00:01.338Z,78.37
2023-02-11T04:02:38.174Z,78.76
2023-02-11T04:05:00.341Z,78.44
2023-02-11T04:07:22.207Z,79.36
2023-02-11T04:09:43.804Z,79.21
2023-02-11T04:12:05.798Z,78.87
2023-02-11T04:14:27.470Z,78.98
2023-02-11T04:16:49.027Z,78.70
2023-02-11T04:19:10.698Z,79.34
2023-02-11T04:21:32.347Z,79.08
2023-02-11T04:23:53.878Z,79.23
2023-02-11T04:26:15.530Z,79.26
2023-02-11T04:28:37.174Z,79.77
2023-02-11T04:30:58.963Z,79.65
2023-02-11T04:33:20.595Z,79.81
2023-02-11T04:35:42.315Z,79.77
2023-02-11T04:38:04.018Z,79.79
2023-02-11T04:40:25.624Z,79.72
2023-02-11T04:42:47.230Z,79.91
2023-02-11T04:45:09.360Z,79.68
2023-02-11T04:47:30.999Z,79.19
2023-02-11T04:49:52.647Z,79.22
2023-02-11T04:52:14.356Z,79.46
2023-02-11T04:54:35.968Z,79.54
2023-02-11T04:56:57.603Z,79.59
2023-02-11T04:59:19.220Z,79.75
2023-02-11T05:01:41.096Z,79.87
2023-02-11T05:04:02.843Z,79.70
2023-02-11T05:06:25.069Z,80.14
2023-02-11T05:08:46.751Z,79.96
2023-02-11T05:11:16.998Z,80.02
2023-02-11T05:13:38.695Z,80.04
2023-02-11T05:16:01.145Z,80.30
2023-02-11T05:18:24.014Z,80.20
2023-02-11T05:20:45.672Z,80.08
2023-02-11T05:23:07.777Z,80.42
2023-02-11T05:25:29.422Z,79.95
2023-02-11T05:27:51.142Z,80.40
2023-02-11T05:30:13.160Z,79.93
2023-02-11T05:32:34.779Z,80.62
2023-02-11T05:34:56.522Z,79.89
2023-02-11T05:37:18.306Z,80.21
2023-02-11T05:39:39.996Z,80.77
2023-02-11T05:42:01.674Z,80.31
2023-02-11T05:44:23.346Z,79.79
2023-02-11T05:46:45.071Z,80.82
2023-02-11T05:49:06.718Z,80.03
2023-02-11T05:51:28.433Z,80.60
2023-02-11T05:53:50.016Z,80.53
2023-02-11T05:56:12.469Z,80.51
2023-02-11T05:58:34.211Z,80.19
2023-02-11T06:00:56.528Z,80.48
2023-02-11T06:03:18.290Z,80.20
2023-02-11T06:05:42.042Z,80.50
2023-02-11T06:08:03.811Z,80.30
2023-02-11T06:10:25.960Z,80.63
2023-02-11T06:12:47.761Z,80.31
2023-02-11T06:15:09.628Z,80.45
2023-02-11T06:17:34.072Z,80.62
2023-02-11T06:19:55.612Z,80.37
2023-02-11T06:22:17.447Z,80.80
2023-02-11T06:24:59.812Z,80.32
2023-02-11T06:27:21.040Z,80.54
2023-02-11T06:29:42.672Z,80.73
2023-02-11T06:32:04.522Z,80.48
2023-02-11T06:34:27.356Z,80.24
2023-02-11T06:36:48.976Z,80.50
2023-02-11T06:39:13.087Z,80.79
2023-02-11T06:41:34.842Z,80.41
2023-02-11T06:43:56.554Z,80.99
2023-02-11T06:46:18.255Z,80.80
2023-02-11T06:48:41.661Z,81.40
2023-02-11T06:51:09.529Z,80.79
2023-02-11T06:53:35.480Z,81.64
2023-02-11T06:56:01.705Z,81.23
2023-02-11T06:58:23.323Z,81.53
2023-02-11T07:00:45.034Z,80.92
2023-02-11T07:03:06.714Z,81.00
2023-02-11T07:05:28.495Z,81.55
2023-02-11T07:07:50.148Z,81.15
2023-02-11T07:10:11.850Z,81.21
2023-02-11T07:12:33.456Z,81.17
2023-02-11T07:14:57.016Z,80.72
2023-02-11T07:17:18.624Z,81.32
2023-02-11T07:19:40.266Z,81.22
2023-02-11T07:22:01.885Z,80.80
2023-02-11T07:24:23.512Z,81.27
2023-02-11T07:26:45.240Z,81.04
2023-02-11T07:29:07.152Z,81.39
2023-02-11T07:31:30.845Z,81.04
2023-02-11T07:33:56.091Z,81.17
2023-02-11T07:36:17.811Z,81.03
2023-02-11T07:38:40.355Z,81.27
2023-02-11T07:41:07.894Z,81.50
2023-02-11T07:43:31.007Z,81.85
2023-02-11T07:45:52.965Z,81.59
2023-02-11T07:48:14.714Z,81.53
2023-02-11T07:50:36.373Z,81.58
2023-02-11T07:52:57.941Z,81.43
2023-02-11T07:55:19.582Z,81.71
2023-02-11T07:57:41.288Z,81.23
2023-02-11T08:00:05.520Z,81.62
2023-02-11T08:02:32.322Z,81.48
2023-02-11T08:04:53.935Z,81.55
2023-02-11T08:07:18.048Z,81.47
2023-02-11T08:09:39.629Z,81.45
2023-02-11T08:12:01.580Z,81.18
2023-02-11T08:14:25.143Z,81.42
2023-02-11T08:16:46.798Z,81.38
2023-02-11T08:19:14.730Z,81.47
2023-02-11T08:21:36.356Z,81.39
2023-02-11T08:23:58.089Z,81.13
2023-02-11T08:26:29.802Z,81.75
2023-02-11T08:28:54.282Z,81.85
2023-02-11T08:31:19.175Z,82.07
2023-02-11T08:33:41.673Z,81.78
2023-02-11T08:36:14.166Z,82.07
2023-02-11T08:38:35.873Z,82.00
2023-02-11T08:41:00.764Z,81.81
2023-02-11T08:43:23.599Z,82.32
2023-02-11T08:45:45.288Z,82.00
2023-02-11T08:48:06.966Z,82.12
2023-02-11T08:50:28.565Z,82.10
2023-02-11T08:52:51.845Z,81.82
2023-02-11T08:55:13.559Z,82.00
2023-02-11T08:57:35.132Z,81.71
2023-02-11T08:59:56.856Z,81.97
2023-02-11T09:02:18.664Z,81.46
2023-02-11T09:04:41.299Z,81.76
2023-02-11T09:07:04.755Z,81.76
2023-02-11T09:09:26.429Z,81.63
2023-02-11T09:11:48.270Z,81.68
2023-02-11T09:14:22.074Z,81.07
2023-02-11T09:16:44.259Z,81.75
2023-02-11T09:19:06.048Z,81.63
2023-02-11T09:21:28.816Z,81.11
2023-02-11T09:23:50.590Z,81.44
2023-02-11T09:26:31.975Z,81.07
2023-02-11T09:28:53.702Z,81.45
2023-02-11T09:31:23.606Z,81.11
2023-02-11T09:33:48.714Z,80.82
2023-02-11T09:36:10.334Z,81.05
2023-02-11T09:38:33.012Z,80.67
2023-02-11T09:40:54.838Z,80.87
2023-02-11T09:43:22.510Z,80.50
2023-02-11T09:45:44.154Z,80.82
2023-02-11T09:48:17.471Z,80.46
2023-02-11T09:50:44.262Z,80.34
2023-02-11T09:53:23.986Z,80.61
2023-02-11T09:55:55.635Z,80.48
2023-02-11T09:58:27.484Z,80.68
2023-02-11T10:01:16.451Z,80.30
2023-02-11T10:04:07.244Z,80.81
2023-02-11T10:06:45.451Z,80.64
2023-02-11T10:09:50.607Z,80.21
2023-02-11T10:12:35.548Z,80.20
2023-02-11T10:15:21.630Z,80.11
2023-02-11T10:18:14.359Z,80.20
2023-02-11T10:21:05.022Z,80.07
2023-02-11T10:23:33.441Z,79.69
2023-02-11T10:25:59.037Z,79.79
2023-02-11T10:28:28.947Z,79.54
2023-02-11T10:31:02.965Z,79.37
2023-02-11T10:33:55.192Z,79.26
2023-02-11T10:36:19.441Z,79.05
2023-02-11T10:38:41.080Z,79.25
2023-02-11T10:41:03.170Z,79.33
2023-02-11T10:43:30.719Z,79.43
2023-02-11T10:45:56.086Z,79.47
2023-02-11T10:48:52.868Z,79.68
2023-02-11T10:51:28.546Z,79.63
2023-02-11T10:54:21.157Z,79.44
2023-02-11T10:56:50.833Z,80.04
2023-02-11T10:59:30.442Z,79.85
2023-02-11T11:02:21.296Z,80.09
2023-02-11T11:04:45.169Z,79.99
2023-02-11T11:07:33.163Z,79.96
2023-02-11T11:10:06.779Z,80.02
2023-02-11T11:12:44.494Z,79.46
2023-02-11T11:15:10.711Z,79.84
2023-02-11T11:17:32.342Z,79.51
2023-02-11T11:19:53.901Z,79.47
2023-02-11T11:22:22.934Z,79.29
2023-02-11T11:24:46.681Z,79.02
2023-02-11T11:27:19.545Z,79.23
2023-02-11T11:29:55.373Z,79.09
2023-02-11T11:32:27.945Z,78.92
2023-02-11T11:34:56.660Z,78.96
2023-02-11T11:37:30.696Z,78.90
2023-02-11T11:40:22.657Z,78.24
2023-02-11T11:42:44.478Z,78.04
2023-02-11T11:45:15.222Z,77.80
2023-02-11T11:48:00.409Z,77.93
2023-02-11T11:50:41.676Z,77.78
2023-02-11T11:53:29.571Z,77.76
2023-02-11T11:56:03.793Z,77.73
2023-02-11T11:58:25.554Z,77.50
2023-02-11T12:01:15.082Z,77.41
2023-02-11T12:04:05.497Z,77.46
2023-02-11T12:07:03.779Z,77.35
2023-02-11T12:09:58.916Z,77.05
2023-02-11T12:12:43.779Z,76.80
2023-02-11T12:15:58.982Z,76.12
2023-02-11T12:18:55.271Z,75.60
2023-02-11T12:21:53.941Z,74.94
2023-02-11T12:24:29.534Z,74.94
2023-02-11T12:27:15.731Z,74.86
2023-02-11T12:30:19.025Z,74.89
2023-02-11T12:33:23.011Z,74.48
2023-02-11T12:35:59.233Z,74.46
2023-02-11T12:38:54.761Z,74.17
2023-02-11T12:42:16.123Z,74.32
2023-02-11T12:45:18.590Z,74.07
2023-02-11T12:48:13.041Z,73.47
2023-02-11T12:51:10.244Z,73.36
2023-02-11T12:53:37.920Z,72.90
2023-02-11T12:56:12.620Z,72.68
2023-02-11T12:58:44.904Z,72.50
2023-02-11T13:01:26.263Z,72.59
2023-02-11T13:04:06.639Z,72.61
2023-02-11T13:06:41.818Z,72.27
2023-02-11T13:09:16.666Z,72.36
2023-02-11T13:11:43.122Z,72.45
2023-02-11T13:14:17.273Z,72.33
2023-02-11T13:16:46.289Z,72.51
2023-02-11T13:19:14.053Z,71.21
2023-02-11T13:22:14.648Z,71.18
2023-02-11T13:24:49.254Z,70.52
2023-02-11T13:27:36.896Z,70.17
2023-02-11T13:30:40.722Z,69.85
2023-02-11T13:33:17.045Z,70.67
2023-02-11T13:35:43.979Z,70.43
2023-02-11T13:38:25.456Z,70.41
2023-02-11T13:41:15.192Z,70.83
2023-02-11T13:43:37.168Z,70.67
2023-02-11T13:46:12.827Z,71.02
2023-02-11T13:48:45.460Z,70.57
2023-02-11T13:51:12.917Z,70.68
2023-02-11T13:53:56.437Z,70.37
2023-02-11T13:56:36.085Z,71.08
2023-02-11T13:59:02.547Z,70.27
2023-02-11T14:02:12.532Z,69.63
2023-02-11T14:04:53.263Z,69.98
2023-02-11T14:07:45.691Z,69.81
2023-02-11T14:10:42.110Z,69.67
2023-02-11T14:13:24.499Z,70.02
2023-02-11T14:15:46.600Z,70.09
2023-02-11T14:18:36.318Z,69.97
2023-02-11T14:21:23.758Z,69.56
2023-02-11T14:23:46.923Z,68.99
2023-02-11T14:26:20.866Z,69.67
2023-02-11T14:28:46.697Z,69.57
2023-02-11T14:31:18.135Z,69.57
2023-02-11T14:34:07.897Z,69.78
2023-02-11T14:37:00.170Z,69.05
2023-02-11T14:39:40.372Z,69.49
2023-02-11T14:42:04.347Z,69.83
2023-02-11T14:44:31.369Z,69.85
2023-02-11T14:46:55.139Z,69.99
2023-02-11T14:49:29.245Z,69.59
2023-02-11T14:51:56.167Z,69.77
2023-02-11T14:54:25.226Z,69.40
2023-02-11T14:56:46.947Z,69.42
2023-02-11T14:59:22.097Z,70.13
2023-02-11T15:01:50.708Z,70.27
2023-02-11T15:04:32.979Z,70.14
2023-02-11T15:06:59.457Z,69.96
2023-02-11T15:09:48.195Z,69.78
2023-02-11T15:12:28.439Z,69.56
2023-02-11T15:14:55.250Z,69.42
2023-02-11T15:17:23.625Z,69.84
2023-02-11T15:19:53.149Z,69.88
2023-02-11T15:22:22.409Z,69.89
2023-02-11T15:24:44.700Z,70.05
2023-02-11T15:27:11.785Z,70.00
2023-02-11T15:29:42.830Z,70.46
2023-02-11T15:32:17.592Z,70.52
2023-02-11T15:34:40.145Z,70.59
2023-02-11T15:37:04.404Z,70.56
2023-02-11T15:39:36.871Z,70.73
2023-02-11T15:42:25.134Z,71.46
2023-02-11T15:44:56.278Z,71.15
2023-02-11T15:47:22.392Z,71.54
2023-02-11T15:49:46.803Z,71.42
2023-02-11T15:52:08.621Z,71.10
2023-02-11T15:54:32.159Z,71.05
2023-02-11T15:57:02.495Z,71.41
2023-02-11T15:59:49.020Z,71.51
2023-02-11T16:02:31.657Z,71.54
2023-02-11T16:05:09.165Z,71.86
2023-02-11T16:07:49.710Z,71.94
2023-02-11T16:10:30.741Z,72.05
2023-02-11T16:13:13.694Z,71.94
2023-02-11T16:15:38.119Z,72.09
2023-02-11T16:18:02.110Z,72.18
2023-02-11T16:20:23.752Z,72.11
2023-02-11T16:22:46.844Z,72.45
2023-02-11T16:25:20.613Z,72.68
2023-02-11T16:27:43.158Z,72.49
2023-02-11T16:30:07.102Z,72.53
2023-02-11T16:32:30.449Z,72.69
2023-02-11T16:34:57.825Z,72.86
2023-02-11T16:37:19.578Z,72.89
2023-02-11T16:39:41.261Z,72.83
2023-02-11T16:42:06.421Z,72.69
2023-02-11T16:44:29.772Z,73.03
2023-02-11T16:46:52.769Z,72.75
2023-02-11T16:49:27.745Z,73.03
2023-02-11T16:51:51.618Z,72.87
2023-02-11T16:54:16.272Z,72.98
2023-02-11T16:56:37.858Z,73.20
2023-02-11T16:58:59.550Z,73.18
2023-02-11T17:01:21.333Z,73.20
2023-02-11T17:03:43.824Z,73.03
2023-02-11T17:06:10.411Z,73.01
2023-02-11T17:08:32.014Z,73.53
2023-02-11T17:10:53.938Z,73.14
2023-02-11T17:13:15.853Z,73.50
2023-02-11T17:15:37.493Z,73.21
2023-02-11T17:17:59.361Z,73.57
2023-02-11T17:20:21.265Z,73.13
2023-02-11T17:22:42.942Z,73.08
2023-02-11T17:25:04.768Z,73.18
2023-02-11T17:27:26.426Z,73.54
2023-02-11T17:29:48.012Z,73.56
2023-02-11T17:32:09.752Z,73.92
2023-02-11T17:34:32.381Z,74.26
2023-02-11T17:36:54.092Z,74.22
2023-02-11T17:39:16.323Z,74.46
2023-02-11T17:41:40.090Z,74.46
2023-02-11T17:44:01.752Z,74.34
2023-02-11T17:46:23.668Z,74.11
2023-02-11T17:48:45.734Z,73.88
2023-02-11T17:51:25.813Z,73.91
2023-02-11T17:53:47.621Z,74.03
2023-02-11T17:56:10.251Z,74.18
2023-02-11T17:58:32.313Z,74.25
2023-02-11T18:00:59.049Z,74.33
2023-02-11T18:03:20.669Z,74.80
2023-02-11T18:05:42.392Z,75.38
2023-02-11T18:08:06.508Z,75.59
2023-02-11T18:10:28.486Z,76.09
2023-02-11T18:12:50.150Z,76.11
2023-02-11T18:15:12.332Z,76.53
2023-02-11T18:17:33.991Z,76.69
2023-02-11T18:19:57.496Z,76.78
2023-02-11T18:22:19.117Z,76.95
2023-02-11T18:24:41.986Z,77.62
2023-02-11T18:27:03.652Z,77.48
2023-02-11T18:29:26.183Z,77.44
2023-02-11T18:31:47.848Z,77.40
2023-02-11T18:34:10.708Z,77.50
2023-02-11T18:36:33.809Z,77.22
2023-02-11T18:38:57.034Z,77.63
2023-02-11T18:41:18.688Z,77.37
2023-02-11T18:43:40.778Z,77.40
2023-02-11T18:46:09.369Z,77.37
2023-02-11T18:48:30.969Z,77.57
2023-02-11T18:50:54.353Z,77.14
2023-02-11T18:53:16.004Z,76.94
2023-02-11T18:55:43.047Z,77.26
2023-02-11T18:58:04.632Z,77.18
2023-02-11T19:00:27.980Z,77.29
2023-02-11T19:02:49.675Z,77.20
2023-02-11T19:05:11.810Z,77.44
2023-02-11T19:07:33.600Z,77.30
2023-02-11T19:09:55.193Z,77.09
2023-02-11T19:12:16.947Z,77.13
2023-02-11T19:14:38.790Z,76.85
2023-02-11T19:17:04.913Z,77.06
2023-02-11T19:19:30.534Z,77.02
2023-02-11T19:21:52.367Z,77.06
2023-02-11T19:24:18.788Z,77.07
2023-02-11T19:26:40.366Z,77.07
2023-02-11T19:29:02.413Z,77.17
2023-02-11T19:31:24.481Z,77.03
2023-02-11T19:33:46.959Z,76.97
2023-02-11T19:36:16.112Z,77.01
2023-02-11T19:38:38.428Z,76.78
2023-02-11T19:41:00.170Z,77.04
2023-02-11T19:43:22.544Z,76.82
2023-02-11T19:45:44.206Z,76.55
2023-02-11T19:48:05.981Z,76.59
2023-02-11T19:50:27.604Z,76.47
2023-02-11T19:52:49.311Z,76.60
2023-02-11T19:55:10.970Z,76.63
2023-02-11T19:57:32.739Z,76.80
2023-02-11T19:59:55.032Z,76.23
2023-02-11T20:02:16.708Z,76.46
2023-02-11T20:04:39.458Z,76.57
2023-02-11T20:07:01.177Z,76.31
2023-02-11T20:09:22.887Z,76.27
2023-02-11T20:11:44.830Z,76.10
2023-02-11T20:14:06.886Z,76.17
2023-02-11T20:16:47.024Z,76.35
2023-02-11T20:19:14.814Z,76.48
2023-02-11T20:21:36.409Z,76.67
2023-02-11T20:23:59.373Z,76.60
2023-02-11T20:26:28.483Z,76.77
2023-02-11T20:28:52.680Z,76.83
2023-02-11T20:31:16.306Z,76.54
2023-02-11T20:33:39.158Z,76.75
2023-02-11T20:36:05.022Z,76.64
2023-02-11T20:38:27.201Z,76.73
2023-02-11T20:40:49.373Z,76.44
2023-02-11T20:43:10.990Z,76.69
2023-02-11T20:45:35.309Z,76.49
2023-02-11T20:47:56.986Z,76.23
2023-02-11T20:50:19.507Z,76.65
2023-02-11T20:52:41.223Z,76.42
2023-02-11T20:55:02.854Z,76.24
2023-02-11T20:57:24.473Z,76.52
2023-02-11T20:59:46.208Z,76.27
2023-02-11T21:02:10.305Z,76.33
2023-02-11T21:04:32.655Z,76.17
2023-02-11T21:06:58.972Z,76.24
2023-02-11T21:09:29.112Z,76.20
2023-02-11T21:11:53.095Z,76.11
2023-02-11T21:14:15.788Z,76.05
2023-02-11T21:16:38.494Z,75.95
2023-02-11T21:19:00.651Z,76.12
2023-02-11T21:21:23.087Z,75.97
2023-02-11T21:23:45.554Z,75.96
2023-02-11T21:26:08.857Z,75.99
2023-02-11T21:28:30.577Z,76.04
2023-02-11T21:30:57.149Z,76.10
2023-02-11T21:33:19.152Z,76.12
2023-02-11T21:35:40.754Z,76.00
2023-02-11T21:38:03.059Z,75.92
2023-02-11T21:40:27.427Z,75.84
2023-02-11T21:42:49.061Z,75.84
2023-02-11T21:45:10.762Z,75.87
2023-02-11T21:47:32.707Z,76.00
2023-02-11T21:49:54.364Z,76.31
2023-02-11T21:52:16.080Z,76.03
2023-02-11T21:54:37.654Z,75.82
2023-02-11T21:57:02.936Z,75.81
2023-02-11T21:59:24.559Z,76.11
2023-02-11T22:01:46.562Z,76.07
2023-02-11T22:04:09.488Z,76.24
2023-02-11T22:06:34.659Z,76.22
2023-02-11T22:08:57.534Z,76.28
2023-02-11T22:11:20.248Z,76.16
2023-02-11T22:13:42.772Z,76.20
2023-02-11T22:16:09.498Z,76.14
2023-02-11T22:18:32.217Z,76.27
2023-02-11T22:21:11.908Z,76.38
2023-02-11T22:23:34.294Z,76.44
2023-02-11T22:25:57.285Z,76.60
2023-02-11T22:28:19.000Z,76.73
2023-02-11T22:30:40.649Z,76.39
2023-02-11T22:33:04.085Z,76.37
2023-02-11T22:35:25.754Z,76.60
2023-02-11T22:37:47.351Z,76.41
2023-02-11T22:40:09.485Z,76.30
2023-02-11T22:42:31.077Z,76.44
2023-02-11T22:44:52.748Z,76.43
2023-02-11T22:47:14.303Z,76.55
2023-02-11T22:49:36.015Z,76.22
2023-02-11T22:51:57.793Z,76.45
2023-02-11T22:54:19.433Z,76.46
2023-02-11T22:56:41.559Z,76.27
2023-02-11T22:59:08.578Z,76.56
2023-02-11T23:01:31.669Z,76.44
2023-02-11T23:03:53.438Z,76.31
2023-02-11T23:06:15.640Z,76.39
2023-02-11T23:08:39.975Z,76.31
2023-02-11T23:11:13.043Z,76.28
2023-02-11T23:13:38.349Z,76.25
2023-02-11T23:16:07.549Z,76.29
2023-02-11T23:18:29.205Z,76.01
2023-02-11T23:20:50.840Z,76.14
2023-02-11T23:23:12.614Z,76.22
2023-02-11T23:25:34.639Z,76.10
2023-02-11T23:27:56.354Z,76.14
2023-02-11T23:30:18.701Z,75.89
2023-02-11T23:32:40.835Z,75.68
2023-02-11T23:35:02.470Z,75.54
2023-02-11T23:37:24.148Z,75.43
2023-02-11T23:39:45.797Z,75.58
2023-02-11T23:42:07.443Z,75.38
2023-02-11T23:44:29.181Z,75.36
2023-02-11T23:46:50.894Z,75.32
2023-02-11T23:49:13.064Z,75.12
2023-02-11T23:51:34.756Z,74.90
2023-02-11T23:53:56.495Z,74.80
2023-02-11T23:56:27.683Z,75.05
2023-02-11T23:58:51.385Z,75.04
